sensor_id;sensor_type;location;lat;lon;timestamp;temperature;humidity
1592;DHT22;789;51.612;7.510;2023-08-21T00:00:15;21.60;1.00
1592;DHT22;789;51.612;7.510;2023-08-21T00:02:42;21.60;1.00
1592;DHT22;789;51.612;7.510;2023-08-21T00:05:09;21.60;1.00
1592;DHT22;789;51.612;7.510;2023-08-21T00:07:36;21.60;1.00
1592;DHT22;789;51.612;7.510;2023-08-21T00:10:03;21.60;1.00
1592;DHT22;789;51.612;7.510;2023-08-21T00:12:32;21.60;1.00
1592;DHT22;789;51.612;7.510;2023-08-21T00:14:59;21.60;1.00
1592;DHT22;789;51.612;7.510;2023-08-21T00:17:26;21.60;1.00
1592;DHT22;789;51.612;7.510;2023-08-21T00:19:52;21.60;1.00
1592;DHT22;789;51.612;7.510;2023-08-21T00:22:19;21.60;1.00
1592;DHT22;789;51.612;7.510;2023-08-21T00:24:46;21.50;1.00
1592;DHT22;789;51.612;7.510;2023-08-21T00:27:13;21.50;1.00
1592;DHT22;789;51.612;7.510;2023-08-21T00:29:41;21.40;1.00
1592;DHT22;789;51.612;7.510;2023-08-21T00:32:08;21.40;1.00
1592;DHT22;789;51.612;7.510;2023-08-21T00:34:34;21.40;1.00
1592;DHT22;789;51.612;7.510;2023-08-21T00:37:01;21.30;1.00
1592;DHT22;789;51.612;7.510;2023-08-21T00:39:28;21.30;1.00
1592;DHT22;789;51.612;7.510;2023-08-21T00:41:55;21.30;1.00
1592;DHT22;789;51.612;7.510;2023-08-21T00:44:21;21.30;1.00
1592;DHT22;789;51.612;7.510;2023-08-21T00:46:50;21.30;1.00
1592;DHT22;789;51.612;7.510;2023-08-21T00:49:16;21.30;1.00
1592;DHT22;789;51.612;7.510;2023-08-21T00:51:44;21.30;1.00
1592;DHT22;789;51.612;7.510;2023-08-21T00:54:11;21.30;1.00
1592;DHT22;789;51.612;7.510;2023-08-21T00:56:38;21.30;1.00
1592;DHT22;789;51.612;7.510;2023-08-21T00:59:05;21.40;1.00
1592;DHT22;789;51.612;7.510;2023-08-21T01:01:33;21.40;1.00
1592;DHT22;789;51.612;7.510;2023-08-21T01:04:02;21.40;1.00
1592;DHT22;789;51.612;7.510;2023-08-21T01:06:29;21.40;1.00
1592;DHT22;789;51.612;7.510;2023-08-21T01:08:59;21.40;1.00
1592;DHT22;789;51.612;7.510;2023-08-21T01:11:35;21.40;1.00
1592;DHT22;789;51.612;7.510;2023-08-21T01:14:12;21.40;1.00
1592;DHT22;789;51.612;7.510;2023-08-21T01:16:44;21.40;1.00
1592;DHT22;789;51.612;7.510;2023-08-21T01:19:22;21.40;1.00
1592;DHT22;789;51.612;7.510;2023-08-21T01:21:52;21.40;1.00
1592;DHT22;789;51.612;7.510;2023-08-21T01:24:20;21.30;1.00
1592;DHT22;789;51.612;7.510;2023-08-21T01:26:47;21.30;1.00
1592;DHT22;789;51.612;7.510;2023-08-21T01:29:14;21.30;1.00
1592;DHT22;789;51.612;7.510;2023-08-21T01:31:44;21.20;1.00
1592;DHT22;789;51.612;7.510;2023-08-21T01:34:13;21.20;1.00
1592;DHT22;789;51.612;7.510;2023-08-21T01:36:42;21.20;1.00
1592;DHT22;789;51.612;7.510;2023-08-21T01:39:09;21.10;1.00
1592;DHT22;789;51.612;7.510;2023-08-21T01:41:41;21.10;1.00
1592;DHT22;789;51.612;7.510;2023-08-21T01:44:08;21.10;1.00
1592;DHT22;789;51.612;7.510;2023-08-21T01:46:35;21.10;1.00
1592;DHT22;789;51.612;7.510;2023-08-21T01:49:02;21.10;1.00
1592;DHT22;789;51.612;7.510;2023-08-21T01:51:28;21.10;1.00
1592;DHT22;789;51.612;7.510;2023-08-21T01:53:55;21.20;1.00
1592;DHT22;789;51.612;7.510;2023-08-21T01:56:22;21.10;1.00
1592;DHT22;789;51.612;7.510;2023-08-21T01:58:50;21.10;1.00
1592;DHT22;789;51.612;7.510;2023-08-21T02:01:17;21.20;1.00
1592;DHT22;789;51.612;7.510;2023-08-21T02:03:45;21.20;1.00
1592;DHT22;789;51.612;7.510;2023-08-21T02:06:12;21.20;1.00
1592;DHT22;789;51.612;7.510;2023-08-21T02:08:39;21.20;1.00
1592;DHT22;789;51.612;7.510;2023-08-21T02:11:06;21.20;1.00
1592;DHT22;789;51.612;7.510;2023-08-21T02:13:32;21.20;1.00
1592;DHT22;789;51.612;7.510;2023-08-21T02:16:01;21.30;1.00
1592;DHT22;789;51.612;7.510;2023-08-21T02:18:28;21.20;1.00
1592;DHT22;789;51.612;7.510;2023-08-21T02:20:57;21.20;1.00
1592;DHT22;789;51.612;7.510;2023-08-21T02:23:24;21.10;1.00
1592;DHT22;789;51.612;7.510;2023-08-21T02:25:51;21.10;1.00
1592;DHT22;789;51.612;7.510;2023-08-21T02:28:18;21.10;1.00
1592;DHT22;789;51.612;7.510;2023-08-21T02:30:45;21.10;1.00
1592;DHT22;789;51.612;7.510;2023-08-21T02:33:13;21.10;1.00
1592;DHT22;789;51.612;7.510;2023-08-21T02:35:40;21.10;1.00
1592;DHT22;789;51.612;7.510;2023-08-21T02:38:07;21.00;1.00
1592;DHT22;789;51.612;7.510;2023-08-21T02:40:33;21.10;1.00
1592;DHT22;789;51.612;7.510;2023-08-21T02:43:00;21.00;1.00
1592;DHT22;789;51.612;7.510;2023-08-21T02:45:27;21.00;1.00
1592;DHT22;789;51.612;7.510;2023-08-21T02:47:54;21.00;1.00
1592;DHT22;789;51.612;7.510;2023-08-21T02:50:22;21.00;1.00
1592;DHT22;789;51.612;7.510;2023-08-21T02:52:49;21.00;1.00
1592;DHT22;789;51.612;7.510;2023-08-21T02:55:16;21.00;1.00
1592;DHT22;789;51.612;7.510;2023-08-21T02:57:43;20.90;1.00
1592;DHT22;789;51.612;7.510;2023-08-21T03:00:10;21.00;1.00
1592;DHT22;789;51.612;7.510;2023-08-21T03:02:39;20.90;1.00
1592;DHT22;789;51.612;7.510;2023-08-21T03:05:08;20.90;1.00
1592;DHT22;789;51.612;7.510;2023-08-21T03:07:37;20.90;1.00
1592;DHT22;789;51.612;7.510;2023-08-21T03:10:05;20.90;1.00
1592;DHT22;789;51.612;7.510;2023-08-21T03:12:32;20.90;1.00
1592;DHT22;789;51.612;7.510;2023-08-21T03:14:59;20.80;1.00
1592;DHT22;789;51.612;7.510;2023-08-21T03:17:26;20.80;1.00
1592;DHT22;789;51.612;7.510;2023-08-21T03:19:53;20.70;1.00
1592;DHT22;789;51.612;7.510;2023-08-21T03:22:19;20.70;1.00
1592;DHT22;789;51.612;7.510;2023-08-21T03:24:47;20.70;1.00
1592;DHT22;789;51.612;7.510;2023-08-21T03:27:16;20.60;1.00
1592;DHT22;789;51.612;7.510;2023-08-21T03:29:44;20.60;1.00
1592;DHT22;789;51.612;7.510;2023-08-21T03:32:14;20.60;1.00
1592;DHT22;789;51.612;7.510;2023-08-21T03:34:41;20.50;1.00
1592;DHT22;789;51.612;7.510;2023-08-21T03:37:08;20.50;1.00
1592;DHT22;789;51.612;7.510;2023-08-21T03:39:35;20.50;1.00
1592;DHT22;789;51.612;7.510;2023-08-21T03:42:04;20.50;1.00
1592;DHT22;789;51.612;7.510;2023-08-21T03:44:31;20.50;1.00
1592;DHT22;789;51.612;7.510;2023-08-21T03:46:59;20.40;1.00
1592;DHT22;789;51.612;7.510;2023-08-21T03:49:25;20.40;1.00
1592;DHT22;789;51.612;7.510;2023-08-21T03:51:52;20.40;1.00
1592;DHT22;789;51.612;7.510;2023-08-21T03:54:19;20.40;1.00
1592;DHT22;789;51.612;7.510;2023-08-21T03:56:46;20.30;1.00
1592;DHT22;789;51.612;7.510;2023-08-21T03:59:14;20.30;1.00
1592;DHT22;789;51.612;7.510;2023-08-21T04:01:40;20.30;1.00
1592;DHT22;789;51.612;7.510;2023-08-21T04:04:07;20.30;1.00
1592;DHT22;789;51.612;7.510;2023-08-21T04:06:34;20.20;1.00
1592;DHT22;789;51.612;7.510;2023-08-21T04:09:01;20.20;1.00
1592;DHT22;789;51.612;7.510;2023-08-21T04:11:31;20.20;1.00
1592;DHT22;789;51.612;7.510;2023-08-21T04:14:00;20.20;1.00
1592;DHT22;789;51.612;7.510;2023-08-21T04:16:28;20.20;1.00
1592;DHT22;789;51.612;7.510;2023-08-21T04:18:56;20.10;1.00
1592;DHT22;789;51.612;7.510;2023-08-21T04:21:23;20.10;1.00
1592;DHT22;789;51.612;7.510;2023-08-21T04:23:49;20.10;1.00
1592;DHT22;789;51.612;7.510;2023-08-21T04:26:16;20.00;1.00
1592;DHT22;789;51.612;7.510;2023-08-21T04:28:43;20.00;1.00
1592;DHT22;789;51.612;7.510;2023-08-21T04:31:10;20.00;1.00
1592;DHT22;789;51.612;7.510;2023-08-21T04:33:38;19.90;1.00
1592;DHT22;789;51.612;7.510;2023-08-21T04:36:06;19.90;1.00
1592;DHT22;789;51.612;7.510;2023-08-21T04:38:33;19.90;1.00
1592;DHT22;789;51.612;7.510;2023-08-21T04:41:06;19.80;1.00
1592;DHT22;789;51.612;7.510;2023-08-21T04:43:33;19.80;1.00
1592;DHT22;789;51.612;7.510;2023-08-21T04:46:00;19.80;1.00
1592;DHT22;789;51.612;7.510;2023-08-21T04:48:27;19.80;1.00
1592;DHT22;789;51.612;7.510;2023-08-21T04:50:55;19.80;1.00
1592;DHT22;789;51.612;7.510;2023-08-21T04:53:22;19.80;1.00
1592;DHT22;789;51.612;7.510;2023-08-21T04:55:49;19.90;1.00
1592;DHT22;789;51.612;7.510;2023-08-21T04:58:15;20.00;1.00
1592;DHT22;789;51.612;7.510;2023-08-21T05:00:44;20.10;1.00
1592;DHT22;789;51.612;7.510;2023-08-21T05:03:11;20.10;1.00
1592;DHT22;789;51.612;7.510;2023-08-21T05:05:38;20.20;1.00
1592;DHT22;789;51.612;7.510;2023-08-21T05:08:07;19.90;1.00
1592;DHT22;789;51.612;7.510;2023-08-21T05:10:33;20.00;1.00
1592;DHT22;789;51.612;7.510;2023-08-21T05:13:00;20.10;1.00
1592;DHT22;789;51.612;7.510;2023-08-21T05:15:27;20.20;1.00
1592;DHT22;789;51.612;7.510;2023-08-21T05:17:54;20.20;1.00
1592;DHT22;789;51.612;7.510;2023-08-21T05:20:21;20.30;1.00
1592;DHT22;789;51.612;7.510;2023-08-21T05:22:48;20.30;1.00
1592;DHT22;789;51.612;7.510;2023-08-21T05:25:18;20.40;1.00
1592;DHT22;789;51.612;7.510;2023-08-21T05:27:45;20.50;1.00
1592;DHT22;789;51.612;7.510;2023-08-21T05:30:12;20.50;1.00
1592;DHT22;789;51.612;7.510;2023-08-21T05:32:39;20.60;1.00
1592;DHT22;789;51.612;7.510;2023-08-21T05:35:06;20.60;1.00
1592;DHT22;789;51.612;7.510;2023-08-21T05:37:33;20.60;1.00
1592;DHT22;789;51.612;7.510;2023-08-21T05:40:00;20.70;1.00
1592;DHT22;789;51.612;7.510;2023-08-21T05:42:30;20.60;1.00
1592;DHT22;789;51.612;7.510;2023-08-21T05:44:57;20.70;1.00
1592;DHT22;789;51.612;7.510;2023-08-21T05:47:25;20.80;1.00
1592;DHT22;789;51.612;7.510;2023-08-21T05:49:52;20.80;1.00
1592;DHT22;789;51.612;7.510;2023-08-21T05:52:20;20.90;1.00
1592;DHT22;789;51.612;7.510;2023-08-21T05:54:47;21.00;1.00
1592;DHT22;789;51.612;7.510;2023-08-21T05:57:14;21.20;1.00
1592;DHT22;789;51.612;7.510;2023-08-21T05:59:45;21.30;1.00
1592;DHT22;789;51.612;7.510;2023-08-21T06:02:13;21.40;1.00
1592;DHT22;789;51.612;7.510;2023-08-21T06:04:40;21.60;1.00
1592;DHT22;789;51.612;7.510;2023-08-21T06:07:07;21.70;1.00
1592;DHT22;789;51.612;7.510;2023-08-21T06:09:38;22.00;1.00
1592;DHT22;789;51.612;7.510;2023-08-21T06:12:06;22.30;1.00
1592;DHT22;789;51.612;7.510;2023-08-21T06:14:32;22.60;1.00
1592;DHT22;789;51.612;7.510;2023-08-21T06:17:03;22.80;1.00
1592;DHT22;789;51.612;7.510;2023-08-21T06:19:30;23.10;1.00
1592;DHT22;789;51.612;7.510;2023-08-21T06:21:58;23.30;1.00
1592;DHT22;789;51.612;7.510;2023-08-21T06:24:25;23.50;1.00
1592;DHT22;789;51.612;7.510;2023-08-21T06:26:52;23.70;1.00
1592;DHT22;789;51.612;7.510;2023-08-21T06:29:19;23.90;1.00
1592;DHT22;789;51.612;7.510;2023-08-21T06:31:46;24.10;1.00
1592;DHT22;789;51.612;7.510;2023-08-21T06:34:14;24.30;1.00
1592;DHT22;789;51.612;7.510;2023-08-21T06:36:42;24.60;1.00
1592;DHT22;789;51.612;7.510;2023-08-21T06:39:10;24.90;1.00
1592;DHT22;789;51.612;7.510;2023-08-21T06:41:36;25.30;1.00
1592;DHT22;789;51.612;7.510;2023-08-21T06:44:04;25.40;1.00
1592;DHT22;789;51.612;7.510;2023-08-21T06:46:30;25.60;1.00
1592;DHT22;789;51.612;7.510;2023-08-21T06:48:57;25.80;1.00
1592;DHT22;789;51.612;7.510;2023-08-21T06:51:25;26.10;1.00
1592;DHT22;789;51.612;7.510;2023-08-21T06:53:52;26.20;1.00
1592;DHT22;789;51.612;7.510;2023-08-21T06:56:19;26.30;1.00
1592;DHT22;789;51.612;7.510;2023-08-21T06:58:49;26.40;1.00
1592;DHT22;789;51.612;7.510;2023-08-21T07:01:15;26.60;1.00
1592;DHT22;789;51.612;7.510;2023-08-21T07:03:43;26.80;1.00
1592;DHT22;789;51.612;7.510;2023-08-21T07:06:10;26.90;1.00
1592;DHT22;789;51.612;7.510;2023-08-21T07:08:38;27.20;1.00
1592;DHT22;789;51.612;7.510;2023-08-21T07:11:10;27.60;1.00
1592;DHT22;789;51.612;7.510;2023-08-21T07:13:38;27.80;1.00
1592;DHT22;789;51.612;7.510;2023-08-21T07:16:05;27.90;1.00
1592;DHT22;789;51.612;7.510;2023-08-21T07:18:32;28.20;1.00
1592;DHT22;789;51.612;7.510;2023-08-21T07:20:59;28.30;1.00
1592;DHT22;789;51.612;7.510;2023-08-21T07:23:26;28.50;1.00
1592;DHT22;789;51.612;7.510;2023-08-21T07:25:54;28.50;1.00
1592;DHT22;789;51.612;7.510;2023-08-21T07:28:21;28.80;1.00
1592;DHT22;789;51.612;7.510;2023-08-21T07:30:54;29.10;1.00
1592;DHT22;789;51.612;7.510;2023-08-21T07:33:21;29.50;1.00
1592;DHT22;789;51.612;7.510;2023-08-21T07:35:49;29.60;1.00
1592;DHT22;789;51.612;7.510;2023-08-21T07:38:22;29.70;1.00
1592;DHT22;789;51.612;7.510;2023-08-21T07:40:50;29.90;1.00
1592;DHT22;789;51.612;7.510;2023-08-21T07:43:18;30.10;1.00
1592;DHT22;789;51.612;7.510;2023-08-21T07:45:45;30.60;1.00
1592;DHT22;789;51.612;7.510;2023-08-21T07:48:12;31.30;1.00
1592;DHT22;789;51.612;7.510;2023-08-21T07:50:39;31.70;1.00
1592;DHT22;789;51.612;7.510;2023-08-21T07:53:05;31.60;1.00
1592;DHT22;789;51.612;7.510;2023-08-21T07:55:32;31.40;1.00
1592;DHT22;789;51.612;7.510;2023-08-21T07:57:59;31.00;1.00
1592;DHT22;789;51.612;7.510;2023-08-21T08:00:27;30.50;1.00
1592;DHT22;789;51.612;7.510;2023-08-21T08:02:55;30.30;1.00
1592;DHT22;789;51.612;7.510;2023-08-21T08:05:22;30.20;1.00
1592;DHT22;789;51.612;7.510;2023-08-21T08:07:49;30.40;1.00
1592;DHT22;789;51.612;7.510;2023-08-21T08:10:16;30.90;1.00
1592;DHT22;789;51.612;7.510;2023-08-21T08:12:42;32.00;1.00
1592;DHT22;789;51.612;7.510;2023-08-21T08:15:10;33.40;1.00
1592;DHT22;789;51.612;7.510;2023-08-21T08:17:38;34.70;1.00
1592;DHT22;789;51.612;7.510;2023-08-21T08:20:07;35.80;1.00
1592;DHT22;789;51.612;7.510;2023-08-21T08:22:34;35.90;1.00
1592;DHT22;789;51.612;7.510;2023-08-21T08:25:01;35.20;1.00
1592;DHT22;789;51.612;7.510;2023-08-21T08:27:28;35.00;1.00
1592;DHT22;789;51.612;7.510;2023-08-21T08:29:55;34.90;1.00
1592;DHT22;789;51.612;7.510;2023-08-21T08:32:22;35.00;1.00
1592;DHT22;789;51.612;7.510;2023-08-21T08:34:50;35.40;1.00
1592;DHT22;789;51.612;7.510;2023-08-21T08:37:17;36.30;1.00
1592;DHT22;789;51.612;7.510;2023-08-21T08:39:45;37.30;1.00
1592;DHT22;789;51.612;7.510;2023-08-21T08:42:14;38.10;1.00
1592;DHT22;789;51.612;7.510;2023-08-21T08:44:42;38.60;1.00
1592;DHT22;789;51.612;7.510;2023-08-21T08:47:10;39.50;1.00
1592;DHT22;789;51.612;7.510;2023-08-21T08:49:38;40.30;1.00
1592;DHT22;789;51.612;7.510;2023-08-21T08:52:09;40.70;1.00
1592;DHT22;789;51.612;7.510;2023-08-21T08:54:37;41.20;1.00
1592;DHT22;789;51.612;7.510;2023-08-21T08:57:04;41.80;1.00
1592;DHT22;789;51.612;7.510;2023-08-21T08:59:31;42.20;1.00
1592;DHT22;789;51.612;7.510;2023-08-21T09:01:59;42.10;1.00
1592;DHT22;789;51.612;7.510;2023-08-21T09:04:26;41.90;1.00
1592;DHT22;789;51.612;7.510;2023-08-21T09:07:07;41.70;1.00
1592;DHT22;789;51.612;7.510;2023-08-21T09:09:38;41.40;1.00
1592;DHT22;789;51.612;7.510;2023-08-21T09:12:10;40.90;1.00
1592;DHT22;789;51.612;7.510;2023-08-21T09:14:39;40.40;1.00
1592;DHT22;789;51.612;7.510;2023-08-21T09:17:06;40.00;1.00
1592;DHT22;789;51.612;7.510;2023-08-21T09:19:33;39.70;1.00
1592;DHT22;789;51.612;7.510;2023-08-21T09:22:09;39.70;1.00
1592;DHT22;789;51.612;7.510;2023-08-21T09:24:37;40.30;1.00
1592;DHT22;789;51.612;7.510;2023-08-21T09:27:11;41.10;1.00
1592;DHT22;789;51.612;7.510;2023-08-21T09:29:42;42.20;1.00
1592;DHT22;789;51.612;7.510;2023-08-21T09:32:09;43.40;1.00
1592;DHT22;789;51.612;7.510;2023-08-21T09:34:37;44.50;1.00
1592;DHT22;789;51.612;7.510;2023-08-21T09:37:09;45.70;1.00
1592;DHT22;789;51.612;7.510;2023-08-21T09:39:37;46.50;1.00
1592;DHT22;789;51.612;7.510;2023-08-21T09:42:08;47.40;1.00
1592;DHT22;789;51.612;7.510;2023-08-21T09:44:37;47.80;1.00
1592;DHT22;789;51.612;7.510;2023-08-21T09:47:07;47.70;1.00
1592;DHT22;789;51.612;7.510;2023-08-21T09:49:35;47.80;1.00
1592;DHT22;789;51.612;7.510;2023-08-21T09:52:04;48.20;1.00
1592;DHT22;789;51.612;7.510;2023-08-21T09:54:38;48.80;1.00
1592;DHT22;789;51.612;7.510;2023-08-21T09:57:05;49.20;1.00
1592;DHT22;789;51.612;7.510;2023-08-21T09:59:34;49.70;1.00
1592;DHT22;789;51.612;7.510;2023-08-21T10:02:05;49.50;1.00
1592;DHT22;789;51.612;7.510;2023-08-21T10:04:36;48.70;1.00
1592;DHT22;789;51.612;7.510;2023-08-21T10:07:06;47.50;1.00
1592;DHT22;789;51.612;7.510;2023-08-21T10:09:34;45.90;1.00
1592;DHT22;789;51.612;7.510;2023-08-21T10:12:05;44.70;1.00
1592;DHT22;789;51.612;7.510;2023-08-21T10:14:35;43.80;1.00
1592;DHT22;789;51.612;7.510;2023-08-21T10:17:02;43.20;1.00
1592;DHT22;789;51.612;7.510;2023-08-21T10:19:32;42.50;1.00
1592;DHT22;789;51.612;7.510;2023-08-21T10:21:59;41.40;1.00
1592;DHT22;789;51.612;7.510;2023-08-21T10:24:27;40.20;1.00
1592;DHT22;789;51.612;7.510;2023-08-21T10:26:58;39.00;1.00
1592;DHT22;789;51.612;7.510;2023-08-21T10:29:26;38.00;1.00
1592;DHT22;789;51.612;7.510;2023-08-21T10:32:01;37.00;1.00
1592;DHT22;789;51.612;7.510;2023-08-21T10:34:33;36.30;1.00
1592;DHT22;789;51.612;7.510;2023-08-21T10:37:09;36.10;1.00
1592;DHT22;789;51.612;7.510;2023-08-21T10:39:44;36.10;1.00
1592;DHT22;789;51.612;7.510;2023-08-21T10:42:19;36.10;1.00
1592;DHT22;789;51.612;7.510;2023-08-21T10:44:49;36.70;1.00
1592;DHT22;789;51.612;7.510;2023-08-21T10:47:19;37.70;1.00
1592;DHT22;789;51.612;7.510;2023-08-21T10:49:47;38.20;1.00
1592;DHT22;789;51.612;7.510;2023-08-21T10:52:15;38.10;1.00
1592;DHT22;789;51.612;7.510;2023-08-21T10:54:47;37.60;1.00
1592;DHT22;789;51.612;7.510;2023-08-21T10:57:17;37.40;1.00
1592;DHT22;789;51.612;7.510;2023-08-21T10:59:54;37.90;1.00
1592;DHT22;789;51.612;7.510;2023-08-21T11:02:22;39.30;1.00
1592;DHT22;789;51.612;7.510;2023-08-21T11:04:49;40.50;1.00
1592;DHT22;789;51.612;7.510;2023-08-21T11:07:16;41.60;1.00
1592;DHT22;789;51.612;7.510;2023-08-21T11:09:43;42.00;1.00
1592;DHT22;789;51.612;7.510;2023-08-21T11:12:12;41.50;1.00
1592;DHT22;789;51.612;7.510;2023-08-21T11:14:40;40.60;1.00
1592;DHT22;789;51.612;7.510;2023-08-21T11:17:09;39.40;1.00
1592;DHT22;789;51.612;7.510;2023-08-21T11:19:38;38.60;1.00
1592;DHT22;789;51.612;7.510;2023-08-21T11:22:07;38.30;1.00
1592;DHT22;789;51.612;7.510;2023-08-21T11:24:42;38.80;1.00
1592;DHT22;789;51.612;7.510;2023-08-21T11:27:09;40.00;1.00
1592;DHT22;789;51.612;7.510;2023-08-21T11:29:41;40.90;1.00
1592;DHT22;789;51.612;7.510;2023-08-21T11:32:13;40.70;1.00
1592;DHT22;789;51.612;7.510;2023-08-21T11:34:49;40.40;1.00
1592;DHT22;789;51.612;7.510;2023-08-21T11:37:17;40.40;1.00
1592;DHT22;789;51.612;7.510;2023-08-21T11:39:47;40.60;1.00
1592;DHT22;789;51.612;7.510;2023-08-21T11:42:20;41.10;1.00
1592;DHT22;789;51.612;7.510;2023-08-21T11:44:52;41.90;1.00
1592;DHT22;789;51.612;7.510;2023-08-21T11:47:21;42.60;1.00
1592;DHT22;789;51.612;7.510;2023-08-21T11:49:53;42.90;1.00
1592;DHT22;789;51.612;7.510;2023-08-21T11:52:23;43.10;1.00
1592;DHT22;789;51.612;7.510;2023-08-21T11:54:52;43.20;1.00
1592;DHT22;789;51.612;7.510;2023-08-21T11:57:20;43.30;1.00
1592;DHT22;789;51.612;7.510;2023-08-21T11:59:50;43.20;1.00
1592;DHT22;789;51.612;7.510;2023-08-21T12:02:21;42.40;1.00
1592;DHT22;789;51.612;7.510;2023-08-21T12:04:52;41.30;1.00
1592;DHT22;789;51.612;7.510;2023-08-21T12:07:19;40.20;1.00
1592;DHT22;789;51.612;7.510;2023-08-21T12:09:49;39.30;1.00
1592;DHT22;789;51.612;7.510;2023-08-21T12:12:18;38.40;1.00
1592;DHT22;789;51.612;7.510;2023-08-21T12:14:46;37.80;1.00
1592;DHT22;789;51.612;7.510;2023-08-21T12:17:13;37.20;1.00
1592;DHT22;789;51.612;7.510;2023-08-21T12:19:41;36.90;1.00
1592;DHT22;789;51.612;7.510;2023-08-21T12:22:09;36.30;1.00
1592;DHT22;789;51.612;7.510;2023-08-21T12:24:37;35.90;1.00
1592;DHT22;789;51.612;7.510;2023-08-21T12:27:06;35.60;1.00
1592;DHT22;789;51.612;7.510;2023-08-21T12:29:35;35.30;1.00
1592;DHT22;789;51.612;7.510;2023-08-21T12:32:04;35.00;1.00
1592;DHT22;789;51.612;7.510;2023-08-21T12:34:32;34.70;1.00
1592;DHT22;789;51.612;7.510;2023-08-21T12:37:00;34.40;1.00
1592;DHT22;789;51.612;7.510;2023-08-21T12:39:29;34.10;1.00
1592;DHT22;789;51.612;7.510;2023-08-21T12:41:55;33.80;1.00
1592;DHT22;789;51.612;7.510;2023-08-21T12:44:22;33.50;1.00
1592;DHT22;789;51.612;7.510;2023-08-21T12:46:49;33.30;1.00
1592;DHT22;789;51.612;7.510;2023-08-21T12:49:17;32.90;1.00
1592;DHT22;789;51.612;7.510;2023-08-21T12:51:44;32.60;1.00
1592;DHT22;789;51.612;7.510;2023-08-21T12:54:12;32.40;1.00
1592;DHT22;789;51.612;7.510;2023-08-21T12:56:39;32.10;1.00
1592;DHT22;789;51.612;7.510;2023-08-21T12:59:06;31.80;1.00
1592;DHT22;789;51.612;7.510;2023-08-21T13:01:33;31.60;1.00
1592;DHT22;789;51.612;7.510;2023-08-21T13:04:01;31.40;1.00
1592;DHT22;789;51.612;7.510;2023-08-21T13:06:28;31.40;1.00
1592;DHT22;789;51.612;7.510;2023-08-21T13:08:55;31.30;1.00
1592;DHT22;789;51.612;7.510;2023-08-21T13:11:27;31.30;1.00
1592;DHT22;789;51.612;7.510;2023-08-21T13:13:55;31.20;1.00
1592;DHT22;789;51.612;7.510;2023-08-21T13:16:21;31.10;1.00
1592;DHT22;789;51.612;7.510;2023-08-21T13:18:48;31.10;1.00
1592;DHT22;789;51.612;7.510;2023-08-21T13:21:17;31.00;1.00
1592;DHT22;789;51.612;7.510;2023-08-21T13:23:44;31.00;1.00
1592;DHT22;789;51.612;7.510;2023-08-21T13:26:11;30.80;1.00
1592;DHT22;789;51.612;7.510;2023-08-21T13:28:39;30.80;1.00
1592;DHT22;789;51.612;7.510;2023-08-21T13:31:06;30.90;1.00
1592;DHT22;789;51.612;7.510;2023-08-21T13:33:44;30.90;1.00
1592;DHT22;789;51.612;7.510;2023-08-21T13:36:11;30.90;1.00
1592;DHT22;789;51.612;7.510;2023-08-21T13:38:38;30.80;1.00
1592;DHT22;789;51.612;7.510;2023-08-21T13:41:05;30.80;1.00
1592;DHT22;789;51.612;7.510;2023-08-21T13:43:32;30.80;1.00
1592;DHT22;789;51.612;7.510;2023-08-21T13:46:01;31.00;1.00
1592;DHT22;789;51.612;7.510;2023-08-21T13:48:29;31.10;1.00
1592;DHT22;789;51.612;7.510;2023-08-21T13:50:57;31.40;1.00
1592;DHT22;789;51.612;7.510;2023-08-21T13:53:24;31.60;1.00
1592;DHT22;789;51.612;7.510;2023-08-21T13:55:51;31.70;1.00
1592;DHT22;789;51.612;7.510;2023-08-21T13:58:18;31.70;1.00
1592;DHT22;789;51.612;7.510;2023-08-21T14:00:45;31.80;1.00
1592;DHT22;789;51.612;7.510;2023-08-21T14:03:13;31.70;1.00
1592;DHT22;789;51.612;7.510;2023-08-21T14:05:43;31.50;1.00
1592;DHT22;789;51.612;7.510;2023-08-21T14:08:10;31.30;1.00
1592;DHT22;789;51.612;7.510;2023-08-21T14:10:36;31.20;1.00
1592;DHT22;789;51.612;7.510;2023-08-21T14:13:04;31.10;1.00
1592;DHT22;789;51.612;7.510;2023-08-21T14:15:33;31.00;1.00
1592;DHT22;789;51.612;7.510;2023-08-21T14:18:00;30.80;1.00
1592;DHT22;789;51.612;7.510;2023-08-21T14:20:40;30.60;1.00
1592;DHT22;789;51.612;7.510;2023-08-21T14:23:06;30.50;1.00
1592;DHT22;789;51.612;7.510;2023-08-21T14:25:38;30.40;1.00
1592;DHT22;789;51.612;7.510;2023-08-21T14:28:06;30.30;1.00
1592;DHT22;789;51.612;7.510;2023-08-21T14:30:37;30.30;1.00
1592;DHT22;789;51.612;7.510;2023-08-21T14:33:04;30.30;1.00
1592;DHT22;789;51.612;7.510;2023-08-21T14:35:35;30.30;1.00
1592;DHT22;789;51.612;7.510;2023-08-21T14:38:02;30.40;1.00
1592;DHT22;789;51.612;7.510;2023-08-21T14:40:28;30.40;1.00
1592;DHT22;789;51.612;7.510;2023-08-21T14:42:55;30.50;1.00
1592;DHT22;789;51.612;7.510;2023-08-21T14:45:22;30.50;1.00
1592;DHT22;789;51.612;7.510;2023-08-21T14:47:49;30.50;1.00
1592;DHT22;789;51.612;7.510;2023-08-21T14:50:16;30.60;1.00
1592;DHT22;789;51.612;7.510;2023-08-21T14:52:44;30.60;1.00
1592;DHT22;789;51.612;7.510;2023-08-21T14:55:13;30.60;1.00
1592;DHT22;789;51.612;7.510;2023-08-21T14:57:40;30.60;1.00
1592;DHT22;789;51.612;7.510;2023-08-21T15:00:08;30.70;1.00
1592;DHT22;789;51.612;7.510;2023-08-21T15:02:36;30.80;1.00
1592;DHT22;789;51.612;7.510;2023-08-21T15:05:03;30.80;1.00
1592;DHT22;789;51.612;7.510;2023-08-21T15:07:31;31.00;1.00
1592;DHT22;789;51.612;7.510;2023-08-21T15:10:00;31.00;1.00
1592;DHT22;789;51.612;7.510;2023-08-21T15:12:27;31.00;1.00
1592;DHT22;789;51.612;7.510;2023-08-21T15:14:53;31.00;1.00
1592;DHT22;789;51.612;7.510;2023-08-21T15:17:20;31.00;1.00
1592;DHT22;789;51.612;7.510;2023-08-21T15:19:49;31.00;1.00
1592;DHT22;789;51.612;7.510;2023-08-21T15:22:19;30.90;1.00
1592;DHT22;789;51.612;7.510;2023-08-21T15:24:46;30.90;1.00
1592;DHT22;789;51.612;7.510;2023-08-21T15:27:14;30.80;1.00
1592;DHT22;789;51.612;7.510;2023-08-21T15:29:43;30.70;1.00
1592;DHT22;789;51.612;7.510;2023-08-21T15:32:14;30.60;1.00
1592;DHT22;789;51.612;7.510;2023-08-21T15:34:41;30.40;1.00
1592;DHT22;789;51.612;7.510;2023-08-21T15:37:08;30.30;1.00
1592;DHT22;789;51.612;7.510;2023-08-21T15:39:35;30.10;1.00
1592;DHT22;789;51.612;7.510;2023-08-21T15:42:02;29.90;1.00
1592;DHT22;789;51.612;7.510;2023-08-21T15:44:30;29.60;1.00
1592;DHT22;789;51.612;7.510;2023-08-21T15:47:02;29.50;1.00
1592;DHT22;789;51.612;7.510;2023-08-21T15:49:28;29.40;1.00
1592;DHT22;789;51.612;7.510;2023-08-21T15:51:55;29.30;1.00
1592;DHT22;789;51.612;7.510;2023-08-21T15:54:30;29.30;1.00
1592;DHT22;789;51.612;7.510;2023-08-21T15:56:57;29.20;1.00
1592;DHT22;789;51.612;7.510;2023-08-21T15:59:24;29.20;1.00
1592;DHT22;789;51.612;7.510;2023-08-21T16:01:52;29.20;1.00
1592;DHT22;789;51.612;7.510;2023-08-21T16:04:19;29.20;1.00
1592;DHT22;789;51.612;7.510;2023-08-21T16:06:47;29.20;1.00
1592;DHT22;789;51.612;7.510;2023-08-21T16:09:14;29.20;1.00
1592;DHT22;789;51.612;7.510;2023-08-21T16:11:41;29.30;1.00
1592;DHT22;789;51.612;7.510;2023-08-21T16:14:07;29.30;1.00
1592;DHT22;789;51.612;7.510;2023-08-21T16:16:34;29.30;1.00
1592;DHT22;789;51.612;7.510;2023-08-21T16:19:03;29.40;1.00
1592;DHT22;789;51.612;7.510;2023-08-21T16:21:30;29.30;1.00
1592;DHT22;789;51.612;7.510;2023-08-21T16:23:57;29.30;1.00
1592;DHT22;789;51.612;7.510;2023-08-21T16:26:24;29.20;1.00
1592;DHT22;789;51.612;7.510;2023-08-21T16:28:50;29.20;1.00
1592;DHT22;789;51.612;7.510;2023-08-21T16:31:17;29.10;1.00
1592;DHT22;789;51.612;7.510;2023-08-21T16:33:44;29.00;1.00
1592;DHT22;789;51.612;7.510;2023-08-21T16:36:12;28.90;1.00
1592;DHT22;789;51.612;7.510;2023-08-21T16:38:40;28.90;1.00